createdAt,value
2018-08-30T00:01:30.182Z,22.23
2018-08-30T00:02:30.390Z,22.23
2018-08-30T00:04:23.881Z,22.20
2018-08-30T00:05:23.737Z,22.19
2018-08-30T00:07:17.202Z,22.13
2018-08-30T00:08:17.085Z,22.16
2018-08-30T00:10:10.113Z,22.20
2018-08-30T00:11:10.090Z,22.19
2018-08-30T00:13:03.577Z,22.14
2018-08-30T00:14:03.774Z,22.07
2018-08-30T00:15:56.904Z,22.10
2018-08-30T00:16:56.793Z,22.06
2018-08-30T00:18:50.139Z,22.13
2018-08-30T00:19:50.463Z,22.04
2018-08-30T00:21:43.612Z,22.07
2018-08-30T00:22:43.814Z,22.06
2018-08-30T00:24:37.271Z,22.02
2018-08-30T00:25:37.142Z,22.07
2018-08-30T00:27:30.640Z,22.02
2018-08-30T00:28:30.495Z,22.09
2018-08-30T00:30:23.516Z,22.07
2018-08-30T00:31:23.858Z,22.07
2018-08-30T00:33:17.331Z,22.12
2018-08-30T00:34:16.845Z,22.07
2018-08-30T00:36:10.545Z,22.02
2018-08-30T00:37:10.531Z,22.09
2018-08-30T00:39:03.992Z,22.04
2018-08-30T00:40:03.537Z,22.07
2018-08-30T00:41:58.004Z,22.02
2018-08-30T00:42:57.876Z,22.02
2018-08-30T00:44:51.234Z,22.02
2018-08-30T00:45:51.220Z,22.02
2018-08-30T00:47:45.020Z,22.06
2018-08-30T00:48:44.569Z,22.02
2018-08-30T00:50:38.288Z,22.02
2018-08-30T00:51:37.919Z,22.01
2018-08-30T00:53:31.406Z,22.06
2018-08-30T00:54:31.261Z,22.07
2018-08-30T00:56:24.954Z,22.07
2018-08-30T00:57:24.940Z,22.04
2018-08-30T00:59:18.421Z,22.06
2018-08-30T01:00:18.286Z,22.07
2018-08-30T01:02:11.434Z,22.07
2018-08-30T01:03:11.648Z,22.09
2018-08-30T01:05:04.774Z,22.04
2018-08-30T01:06:04.663Z,22.09
2018-08-30T01:07:58.003Z,22.02
2018-08-30T01:08:58.340Z,22.09
2018-08-30T01:10:51.790Z,22.14
2018-08-30T01:11:51.339Z,22.06
2018-08-30T01:13:44.689Z,22.07
2018-08-30T01:14:45.028Z,22.09
2018-08-30T01:16:38.149Z,22.10
2018-08-30T01:17:38.368Z,22.06
2018-08-30T01:19:31.707Z,22.10
2018-08-30T01:20:31.363Z,22.09
2018-08-30T01:22:25.175Z,22.12
2018-08-30T01:23:24.724Z,22.14
2018-08-30T01:25:18.424Z,22.09
2018-08-30T01:26:18.067Z,22.16
2018-08-30T01:28:11.630Z,22.19
2018-08-30T01:29:11.761Z,22.22
2018-08-30T01:31:04.894Z,22.20
2018-08-30T01:32:05.091Z,22.32
2018-08-30T01:33:58.225Z,22.23
2018-08-30T01:34:58.446Z,22.29
2018-08-30T01:36:51.576Z,22.28
2018-08-30T01:37:51.454Z,22.31
2018-08-30T01:39:45.126Z,22.34
2018-08-30T01:40:45.146Z,22.35
2018-08-30T01:42:38.602Z,22.28
2018-08-30T01:43:38.489Z,22.31
2018-08-30T01:45:31.825Z,22.28
2018-08-30T01:46:31.816Z,22.28
2018-08-30T01:48:24.946Z,22.25
2018-08-30T01:49:24.831Z,22.22
2018-08-30T01:51:18.297Z,22.28
2018-08-30T01:52:18.175Z,22.31
2018-08-30T01:54:11.977Z,22.35
2018-08-30T01:55:11.848Z,22.35
2018-08-30T01:57:05.342Z,22.43
2018-08-30T01:58:04.853Z,22.37
2018-08-30T01:59:58.672Z,22.37
2018-08-30T02:00:58.210Z,22.37
2018-08-30T02:02:52.139Z,22.37
2018-08-30T02:03:51.898Z,22.43
2018-08-30T02:05:44.916Z,22.43
2018-08-30T02:06:45.246Z,22.49
2018-08-30T02:08:38.366Z,22.52
2018-08-30T02:09:38.575Z,22.50
2018-08-30T02:11:32.079Z,22.46
2018-08-30T02:12:31.943Z,22.46
2018-08-30T02:14:25.379Z,22.50
2018-08-30T02:15:25.262Z,22.52
2018-08-30T02:17:18.647Z,22.53
2018-08-30T02:18:18.276Z,22.52
2018-08-30T02:20:11.772Z,22.56
2018-08-30T02:21:11.632Z,22.50
2018-08-30T02:23:05.336Z,22.49
2018-08-30T02:24:05.008Z,22.49
2018-08-30T02:25:58.625Z,22.44
2018-08-30T02:26:58.329Z,22.52
2018-08-30T02:28:52.276Z,22.39
2018-08-30T02:29:51.674Z,22.37
2018-08-30T02:31:45.731Z,22.43
2018-08-30T02:32:45.009Z,22.32
2018-08-30T02:34:38.581Z,22.39
2018-08-30T02:35:38.361Z,22.35
2018-08-30T02:37:31.725Z,22.34
2018-08-30T02:38:31.705Z,22.32
2018-08-30T02:40:25.169Z,22.34
2018-08-30T02:41:25.077Z,22.25
2018-08-30T02:43:18.398Z,22.25
2018-08-30T02:44:18.394Z,22.35
2018-08-30T02:46:12.027Z,22.31
2018-08-30T02:47:11.765Z,22.28
2018-08-30T02:49:05.553Z,22.28
2018-08-30T02:50:05.105Z,22.31
2018-08-30T02:51:58.109Z,22.28
2018-08-30T02:52:57.974Z,22.31
2018-08-30T02:54:51.431Z,22.31
2018-08-30T02:57:23.355Z,22.28
2018-08-30T02:58:22.890Z,22.35
2018-08-30T03:00:16.235Z,22.37
2018-08-30T03:01:16.589Z,22.25
2018-08-30T03:03:10.076Z,22.38
2018-08-30T03:04:09.591Z,22.34
2018-08-30T03:06:02.960Z,22.31
2018-08-30T03:07:02.948Z,22.29
2018-08-30T03:08:56.745Z,22.38
2018-08-30T03:09:56.309Z,22.38
2018-08-30T03:11:50.251Z,22.35
2018-08-30T03:12:49.993Z,22.35
2018-08-30T03:14:43.591Z,22.38
2018-08-30T03:15:42.980Z,22.27
2018-08-30T03:17:36.698Z,22.25
2018-08-30T03:18:36.331Z,22.31
2018-08-30T03:20:30.244Z,22.31
2018-08-30T03:21:30.028Z,22.29
2018-08-30T03:23:23.042Z,22.22
2018-08-30T03:24:23.383Z,22.31
2018-08-30T03:26:17.414Z,22.22
2018-08-30T03:27:16.703Z,22.23
2018-08-30T03:29:09.721Z,22.25
2018-08-30T03:30:10.070Z,22.32
2018-08-30T03:32:03.711Z,22.23
2018-08-30T03:33:03.916Z,22.16
2018-08-30T03:34:56.571Z,22.20
2018-08-30T03:35:56.797Z,22.17
2018-08-30T03:37:49.852Z,22.17
2018-08-30T03:38:50.155Z,22.17
2018-08-30T03:40:43.256Z,22.22
2018-08-30T03:41:43.141Z,22.19
2018-08-30T03:43:36.846Z,22.22
2018-08-30T03:44:36.481Z,22.17
2018-08-30T03:46:30.384Z,22.17
2018-08-30T03:47:30.183Z,22.19
2018-08-30T03:49:23.184Z,22.20
2018-08-30T03:50:23.507Z,22.17
2018-08-30T03:52:16.968Z,22.17
2018-08-30T03:53:16.509Z,22.16
2018-08-30T03:55:10.284Z,22.20
2018-08-30T03:56:09.869Z,22.16
2018-08-30T03:58:03.347Z,22.20
2018-08-30T03:59:03.554Z,22.16
2018-08-30T04:00:57.624Z,22.19
2018-08-30T04:01:56.558Z,22.19
2018-08-30T04:03:50.247Z,22.17
2018-08-30T04:04:50.245Z,22.19
2018-08-30T04:06:43.971Z,22.23
2018-08-30T04:07:43.248Z,22.14
2018-08-30T04:09:36.613Z,22.07
2018-08-30T04:10:37.178Z,22.10
2018-08-30T04:12:30.403Z,22.23
2018-08-30T04:13:30.012Z,22.09
2018-08-30T04:15:23.834Z,22.14
2018-08-30T04:16:23.315Z,22.09
2018-08-30T04:18:16.765Z,22.07
2018-08-30T04:19:16.980Z,22.07
2018-08-30T04:21:09.998Z,22.06
2018-08-30T04:22:10.011Z,22.14
2018-08-30T04:24:03.786Z,22.23
2018-08-30T04:25:03.654Z,22.13
2018-08-30T04:26:56.804Z,22.17
2018-08-30T04:27:57.008Z,22.12
2018-08-30T04:29:50.502Z,22.14
2018-08-30T04:30:50.022Z,22.23
2018-08-30T04:32:43.486Z,22.04
2018-08-30T04:33:43.365Z,22.09
2018-08-30T04:35:37.199Z,22.07
2018-08-30T04:36:37.047Z,21.98
2018-08-30T04:38:30.668Z,21.99
2018-08-30T04:39:30.382Z,22.01
2018-08-30T04:41:23.401Z,21.92
2018-08-30T04:42:23.825Z,21.92
2018-08-30T04:44:16.855Z,21.92
2018-08-30T04:45:17.091Z,21.82
2018-08-30T04:47:10.207Z,21.76
2018-08-30T04:48:10.083Z,21.79
2018-08-30T04:50:03.500Z,21.69
2018-08-30T04:51:03.763Z,21.69
2018-08-30T04:52:57.124Z,21.63
2018-08-30T04:53:57.118Z,21.64
2018-08-30T04:55:50.470Z,21.56
2018-08-30T04:56:50.185Z,21.54
2018-08-30T04:58:44.020Z,21.53
2018-08-30T04:59:43.806Z,21.50
2018-08-30T05:01:37.389Z,21.51
2018-08-30T05:02:37.160Z,21.54
2018-08-30T05:04:31.109Z,21.54
2018-08-30T05:05:30.494Z,21.60
2018-08-30T05:07:23.696Z,21.64
2018-08-30T05:08:23.504Z,21.56
2018-08-30T05:10:16.859Z,21.60
2018-08-30T05:11:17.205Z,21.63
2018-08-30T05:13:10.847Z,21.54
2018-08-30T05:14:10.202Z,21.56
2018-08-30T05:16:03.062Z,21.64
2018-08-30T05:17:03.073Z,21.56
2018-08-30T05:18:57.207Z,21.57
2018-08-30T05:19:56.756Z,21.63
2018-08-30T05:21:49.875Z,21.64
2018-08-30T05:22:49.767Z,21.66
2018-08-30T05:24:42.819Z,21.72
2018-08-30T05:27:15.277Z,21.63
2018-08-30T05:28:14.679Z,21.69
2018-08-30T05:30:09.171Z,21.66
2018-08-30T05:31:08.031Z,21.71
2018-08-30T05:33:02.453Z,21.71
2018-08-30T05:34:02.241Z,21.71
2018-08-30T05:35:55.851Z,21.76
2018-08-30T05:36:55.252Z,21.64
2018-08-30T05:38:49.137Z,21.67
2018-08-30T05:39:48.586Z,21.71
2018-08-30T05:41:41.946Z,21.76
2018-08-30T05:42:41.947Z,21.67
2018-08-30T05:44:35.523Z,21.78
2018-08-30T05:45:35.308Z,21.75
2018-08-30T05:47:29.777Z,21.67
2018-08-30T05:48:28.612Z,21.67
2018-08-30T05:50:22.196Z,21.69
2018-08-30T05:51:22.293Z,21.79
2018-08-30T05:53:15.328Z,21.75
2018-08-30T05:54:15.696Z,21.78
2018-08-30T05:56:08.867Z,21.82
2018-08-30T05:57:08.664Z,21.85
2018-08-30T05:59:02.060Z,21.88
2018-08-30T06:00:01.549Z,21.81
2018-08-30T06:01:54.875Z,21.81
2018-08-30T06:02:55.193Z,21.75
2018-08-30T06:04:48.888Z,21.78
2018-08-30T06:05:48.207Z,21.79
2018-08-30T06:07:42.156Z,21.82
2018-08-30T06:08:41.556Z,21.82
2018-08-30T06:10:35.097Z,21.83
2018-08-30T06:11:35.250Z,21.76
2018-08-30T06:13:29.037Z,21.78
2018-08-30T06:14:28.258Z,21.78
2018-08-30T06:16:22.147Z,21.79
2018-08-30T06:17:21.589Z,21.79
2018-08-30T06:19:15.494Z,21.83
2018-08-30T06:20:14.926Z,21.78
2018-08-30T06:22:09.060Z,21.83
2018-08-30T06:23:08.629Z,21.82
2018-08-30T06:25:02.242Z,21.75
2018-08-30T06:26:01.963Z,21.81
2018-08-30T06:27:55.767Z,21.82
2018-08-30T06:28:55.297Z,21.82
2018-08-30T06:30:48.338Z,21.78
2018-08-30T06:31:48.660Z,21.85
2018-08-30T06:33:41.872Z,21.90
2018-08-30T06:34:42.046Z,21.85
2018-08-30T06:36:35.466Z,21.85
2018-08-30T06:37:35.027Z,21.88
2018-08-30T06:39:28.713Z,21.85
2018-08-30T06:40:28.380Z,21.94
2018-08-30T06:42:22.396Z,21.90
2018-08-30T06:43:21.709Z,21.91
2018-08-30T06:45:15.506Z,21.91
2018-08-30T06:46:15.050Z,21.88
2018-08-30T06:48:09.202Z,21.92
2018-08-30T06:49:08.418Z,21.95
2018-08-30T06:51:01.748Z,21.85
2018-08-30T06:52:01.751Z,21.94
2018-08-30T06:53:55.632Z,21.95
2018-08-30T06:54:55.441Z,21.85
2018-08-30T06:56:49.004Z,21.94
2018-08-30T06:57:48.436Z,21.94
2018-08-30T06:59:41.787Z,21.88
2018-08-30T07:00:41.785Z,21.95
2018-08-30T07:02:35.209Z,21.88
2018-08-30T07:03:34.639Z,21.88
2018-08-30T07:05:28.335Z,21.92
2018-08-30T07:06:28.021Z,21.88
2018-08-30T07:08:22.142Z,21.81
2018-08-30T07:09:21.341Z,21.85
2018-08-30T07:11:14.902Z,21.83
2018-08-30T07:12:14.699Z,21.85
2018-08-30T07:14:08.576Z,21.95
2018-08-30T07:15:08.144Z,21.90
2018-08-30T07:17:01.387Z,21.88
2018-08-30T07:18:01.715Z,21.94
2018-08-30T07:19:55.265Z,21.94
2018-08-30T07:20:54.734Z,21.90
2018-08-30T07:22:48.082Z,21.92
2018-08-30T07:23:48.076Z,21.92
2018-08-30T07:25:41.625Z,21.97
2018-08-30T07:26:41.768Z,21.95
2018-08-30T07:28:35.333Z,21.97
2018-08-30T07:29:34.752Z,21.97
2018-08-30T07:31:28.785Z,21.79
2018-08-30T07:32:28.439Z,21.94
2018-08-30T07:34:22.609Z,21.95
2018-08-30T07:35:22.194Z,21.99
2018-08-30T07:37:16.081Z,21.94
2018-08-30T07:39:48.379Z,21.97
2018-08-30T07:40:47.915Z,21.85
2018-08-30T07:42:41.285Z,21.91
2018-08-30T07:43:41.283Z,21.94
2018-08-30T07:45:34.914Z,21.92
2018-08-30T07:46:34.270Z,21.95
2018-08-30T07:48:28.157Z,21.94
2018-08-30T07:49:27.618Z,21.94
2018-08-30T07:51:21.597Z,21.95
2018-08-30T07:52:20.966Z,21.97
2018-08-30T07:54:21.455Z,21.85
2018-08-30T07:55:14.314Z,21.97
2018-08-30T07:57:07.858Z,21.94
2018-08-30T07:58:07.683Z,21.94
2018-08-30T08:00:01.428Z,21.91
2018-08-30T08:01:00.997Z,21.90
2018-08-30T08:02:54.878Z,21.88
2018-08-30T08:03:54.705Z,21.94
2018-08-30T08:05:47.707Z,21.85
2018-08-30T08:06:48.026Z,21.95
2018-08-30T08:08:41.236Z,21.91
2018-08-30T08:09:41.034Z,21.88
2018-08-30T08:11:34.924Z,21.90
2018-08-30T08:12:34.442Z,21.82
2018-08-30T08:14:28.081Z,21.90
2018-08-30T08:15:27.725Z,21.76
2018-08-30T08:17:25.087Z,21.83
2018-08-30T08:18:21.401Z,21.85
2018-08-30T08:20:14.414Z,21.85
2018-08-30T08:21:14.418Z,21.85
2018-08-30T08:23:08.555Z,21.85
2018-08-30T08:24:07.769Z,21.85
2018-08-30T08:26:01.471Z,21.82
2018-08-30T08:27:01.465Z,21.85
2018-08-30T08:28:54.982Z,21.82
2018-08-30T08:29:54.795Z,21.82
2018-08-30T08:31:47.677Z,21.82
2018-08-30T08:32:47.334Z,21.91
2018-08-30T08:34:40.849Z,21.82
2018-08-30T08:35:40.992Z,21.85
2018-08-30T08:37:34.730Z,21.95
2018-08-30T08:38:34.036Z,21.85
2018-08-30T08:40:27.685Z,21.82
2018-08-30T08:41:27.666Z,21.85
2018-08-30T08:43:21.967Z,21.85
2018-08-30T08:44:21.042Z,21.90
2018-08-30T08:46:14.981Z,21.82
2018-08-30T08:47:14.030Z,21.82
2018-08-30T08:49:11.931Z,21.85
2018-08-30T08:50:07.717Z,21.85
2018-08-30T08:52:00.735Z,21.85
2018-08-30T08:53:00.724Z,21.81
2018-08-30T08:54:55.200Z,21.88
2018-08-30T08:55:54.441Z,21.82
2018-08-30T08:57:47.741Z,21.79
2018-08-30T08:58:47.512Z,21.78
2018-08-30T09:00:41.115Z,21.88
2018-08-30T09:01:40.749Z,21.83
2018-08-30T09:03:34.625Z,21.82
2018-08-30T09:04:34.091Z,21.88
2018-08-30T09:06:27.984Z,21.81
2018-08-30T09:07:27.777Z,21.79
2018-08-30T09:09:20.784Z,21.83
2018-08-30T09:10:21.103Z,21.82
2018-08-30T09:12:14.673Z,21.82
2018-08-30T09:13:14.116Z,21.82
2018-08-30T09:15:07.657Z,21.79
2018-08-30T09:16:07.458Z,21.78
2018-08-30T09:18:01.145Z,21.90
2018-08-30T09:19:01.144Z,21.88
2018-08-30T09:20:55.299Z,21.82
2018-08-30T09:21:54.491Z,21.78
2018-08-30T09:23:48.050Z,21.78
2018-08-30T09:24:47.489Z,21.85
2018-08-30T09:26:41.203Z,21.78
2018-08-30T09:27:40.827Z,21.78
2018-08-30T09:29:34.388Z,21.76
2018-08-30T09:30:34.155Z,21.79
2018-08-30T09:32:27.867Z,21.78
2018-08-30T09:33:27.516Z,21.78
2018-08-30T09:35:21.649Z,21.79
2018-08-30T09:36:21.453Z,21.78
2018-08-30T09:38:14.804Z,21.82
2018-08-30T09:39:15.125Z,21.78
2018-08-30T09:41:08.675Z,21.76
2018-08-30T09:42:08.129Z,21.78
2018-08-30T09:44:01.501Z,21.81
2018-08-30T09:45:01.483Z,21.79
2018-08-30T09:46:55.361Z,21.82
2018-08-30T09:47:54.837Z,21.81
2018-08-30T09:49:48.479Z,21.81
2018-08-30T09:50:48.180Z,21.81
2018-08-30T09:52:41.240Z,21.82
2018-08-30T09:53:41.047Z,21.81
2018-08-30T09:55:34.602Z,21.78
2018-08-30T09:56:34.385Z,21.88
2018-08-30T09:58:27.739Z,21.85
2018-08-30T09:59:27.726Z,21.79
2018-08-30T10:01:21.291Z,21.90
2018-08-30T10:02:21.069Z,21.78
2018-08-30T10:04:15.039Z,21.83
2018-08-30T10:06:49.438Z,21.75
2018-08-30T10:07:45.977Z,21.82
2018-08-30T10:09:39.867Z,21.82
2018-08-30T10:10:39.323Z,21.79
2018-08-30T10:12:32.668Z,21.82
2018-08-30T10:13:32.997Z,21.82
2018-08-30T10:15:26.565Z,21.78
2018-08-30T10:16:26.006Z,21.82
2018-08-30T10:18:19.370Z,21.83
2018-08-30T10:19:19.357Z,21.78
2018-08-30T10:21:13.073Z,21.85
2018-08-30T10:22:13.059Z,21.83
2018-08-30T10:24:06.643Z,21.81
2018-08-30T10:25:06.038Z,21.85
2018-08-30T10:26:59.969Z,21.81
2018-08-30T10:27:59.726Z,21.79
2018-08-30T10:29:52.741Z,21.82
2018-08-30T10:30:53.070Z,21.85
2018-08-30T10:32:46.769Z,21.82
2018-08-30T10:33:46.086Z,21.78
2018-08-30T10:35:40.358Z,21.79
2018-08-30T10:36:39.775Z,21.79
2018-08-30T10:38:37.381Z,21.71
2018-08-30T10:39:33.090Z,21.83
2018-08-30T10:41:26.861Z,21.81
2018-08-30T10:42:26.119Z,21.82
2018-08-30T10:44:19.559Z,21.81
2018-08-30T10:45:19.791Z,21.79
2018-08-30T10:47:15.583Z,21.85
2018-08-30T10:48:12.815Z,21.88
2018-08-30T10:50:06.669Z,21.82
2018-08-30T10:51:06.486Z,21.78
2018-08-30T10:53:00.409Z,21.82
2018-08-30T10:53:59.807Z,21.78
2018-08-30T10:55:53.125Z,21.75
2018-08-30T10:56:53.151Z,21.81
2018-08-30T10:58:46.853Z,21.71
2018-08-30T10:59:46.165Z,21.83
2018-08-30T11:01:39.841Z,21.83
2018-08-30T11:02:39.848Z,21.74
2018-08-30T11:04:33.783Z,21.66
2018-08-30T11:05:33.201Z,21.78
2018-08-30T11:07:26.802Z,21.76
2018-08-30T11:08:26.528Z,21.81
2018-08-30T11:10:20.177Z,21.69
2018-08-30T11:11:19.891Z,21.67
2018-08-30T11:13:13.247Z,21.75
2018-08-30T11:14:13.237Z,21.71
2018-08-30T11:16:06.762Z,21.76
2018-08-30T11:17:06.580Z,21.69
2018-08-30T11:19:00.176Z,21.72
2018-08-30T11:19:59.922Z,21.67
2018-08-30T11:21:53.476Z,21.79
2018-08-30T11:22:52.947Z,21.76
2018-08-30T11:24:46.817Z,21.81
2018-08-30T11:25:46.604Z,21.76
2018-08-30T11:27:39.711Z,21.74
2018-08-30T11:28:39.958Z,21.72
2018-08-30T11:30:33.518Z,21.76
2018-08-30T11:31:33.294Z,21.75
2018-08-30T11:33:26.855Z,21.75
2018-08-30T11:34:26.657Z,21.75
2018-08-30T11:36:20.758Z,21.74
2018-08-30T11:37:20.737Z,21.72
2018-08-30T11:39:14.271Z,21.75
2018-08-30T11:40:14.083Z,21.72
2018-08-30T11:42:08.050Z,21.69
2018-08-30T11:43:07.106Z,21.74
2018-08-30T11:45:00.645Z,21.72
2018-08-30T11:46:00.801Z,21.69
2018-08-30T11:47:53.799Z,21.78
2018-08-30T11:48:54.130Z,21.69
2018-08-30T11:50:47.347Z,21.63
2018-08-30T11:51:47.159Z,21.75
2018-08-30T11:53:40.811Z,21.69
2018-08-30T11:54:40.801Z,21.75
2018-08-30T11:56:34.007Z,21.74
2018-08-30T11:57:34.142Z,21.67
2018-08-30T11:59:27.517Z,21.76
2018-08-30T12:00:27.500Z,21.76
2018-08-30T12:02:20.578Z,21.67
2018-08-30T12:03:20.361Z,21.67
2018-08-30T12:05:13.792Z,21.72
2018-08-30T12:06:13.700Z,21.69
2018-08-30T12:08:07.312Z,21.72
2018-08-30T12:09:07.045Z,21.71
2018-08-30T12:11:00.551Z,21.66
2018-08-30T12:12:00.368Z,21.72
2018-08-30T12:13:53.928Z,21.72
2018-08-30T12:14:53.721Z,21.75
2018-08-30T12:16:46.733Z,21.69
2018-08-30T12:17:46.724Z,21.75
2018-08-30T12:19:40.687Z,21.71
2018-08-30T12:20:40.179Z,21.74
2018-08-30T12:22:33.429Z,21.71
2018-08-30T12:23:33.761Z,21.69
2018-08-30T12:25:26.960Z,21.74
2018-08-30T12:26:26.750Z,21.71
2018-08-30T12:28:20.524Z,21.69
2018-08-30T12:29:20.085Z,21.69
2018-08-30T12:31:13.594Z,21.74
2018-08-30T12:32:13.004Z,21.71
2018-08-30T12:34:06.374Z,21.63
2018-08-30T12:35:06.355Z,21.61
2018-08-30T12:36:59.823Z,21.71
2018-08-30T12:37:59.975Z,21.64
2018-08-30T12:39:53.089Z,21.67
2018-08-30T12:40:53.348Z,21.71
2018-08-30T12:42:46.624Z,21.72
2018-08-30T12:43:46.442Z,21.67
2018-08-30T12:45:39.710Z,21.71
2018-08-30T12:46:39.688Z,21.66
2018-08-30T12:48:33.564Z,21.72
2018-08-30T12:49:33.385Z,21.66
2018-08-30T12:51:26.835Z,21.76
2018-08-30T12:52:26.818Z,21.71
2018-08-30T12:54:20.022Z,21.69
2018-08-30T12:55:20.127Z,21.74
2018-08-30T12:57:13.368Z,21.69
2018-08-30T12:58:13.143Z,21.69
2018-08-30T13:00:07.176Z,21.67
2018-08-30T13:01:06.486Z,21.60
2018-08-30T13:02:59.991Z,21.71
2018-08-30T13:04:00.311Z,21.71
2018-08-30T13:05:53.583Z,21.66
2018-08-30T13:06:53.203Z,21.76
2018-08-30T13:08:46.734Z,21.74
2018-08-30T13:09:46.911Z,21.71
2018-08-30T13:11:39.763Z,21.71
2018-08-30T13:12:39.581Z,21.66
2018-08-30T13:14:32.922Z,21.71
2018-08-30T13:15:33.397Z,21.66
2018-08-30T13:17:26.791Z,21.74
2018-08-30T13:18:26.491Z,21.61
2018-08-30T13:20:19.569Z,21.67
2018-08-30T13:21:19.867Z,21.71
2018-08-30T13:23:13.192Z,21.72
2018-08-30T13:24:12.908Z,21.66
2018-08-30T13:26:06.287Z,21.71
2018-08-30T13:27:06.529Z,21.72
2018-08-30T13:29:00.384Z,21.72
2018-08-30T13:29:59.925Z,21.71
2018-08-30T13:31:53.040Z,21.71
2018-08-30T13:32:53.293Z,21.69
2018-08-30T13:34:46.530Z,21.66
2018-08-30T13:35:46.296Z,21.69
2018-08-30T13:37:39.679Z,21.71
2018-08-30T13:38:39.801Z,21.74
2018-08-30T13:40:33.862Z,21.66
2018-08-30T13:41:33.535Z,21.67
2018-08-30T13:43:26.324Z,21.76
2018-08-30T13:44:26.412Z,21.75
2018-08-30T13:46:19.835Z,21.74
2018-08-30T13:47:20.002Z,21.74
2018-08-30T13:49:13.436Z,21.74
2018-08-30T13:50:13.163Z,21.66
2018-08-30T13:52:07.607Z,21.76
2018-08-30T13:53:06.717Z,21.74
2018-08-30T13:54:59.712Z,21.81
2018-08-30T13:55:59.741Z,21.74
2018-08-30T13:57:54.285Z,21.74
2018-08-30T13:58:53.688Z,21.74
2018-08-30T14:00:47.072Z,21.76
2018-08-30T14:01:46.822Z,21.69
2018-08-30T14:03:39.888Z,21.72
2018-08-30T14:04:39.662Z,21.67
2018-08-30T14:06:33.308Z,21.66
2018-08-30T14:07:33.314Z,21.72
2018-08-30T14:09:26.904Z,21.71
2018-08-30T14:10:26.325Z,21.69
2018-08-30T14:12:20.082Z,21.72
2018-08-30T14:13:19.721Z,21.71
2018-08-30T14:15:13.709Z,21.74
2018-08-30T14:16:13.125Z,21.63
2018-08-30T14:18:06.740Z,21.72
2018-08-30T14:19:06.489Z,21.72
2018-08-30T14:21:00.032Z,21.71
2018-08-30T14:21:59.809Z,21.64
2018-08-30T14:23:52.823Z,21.75
2018-08-30T14:24:53.177Z,21.71
2018-08-30T14:26:46.697Z,21.75
2018-08-30T14:27:46.276Z,21.72
2018-08-30T14:29:39.839Z,21.74
2018-08-30T14:30:39.557Z,21.64
2018-08-30T14:32:33.072Z,21.74
2018-08-30T14:33:33.189Z,21.75
2018-08-30T14:35:26.520Z,21.75
2018-08-30T14:36:26.188Z,21.69
2018-08-30T14:38:19.734Z,21.76
2018-08-30T14:39:19.541Z,21.64
2018-08-30T14:41:12.855Z,21.69
2018-08-30T14:42:12.718Z,21.75
2018-08-30T14:44:06.826Z,21.75
2018-08-30T14:45:05.764Z,21.69
2018-08-30T14:46:59.519Z,21.69
2018-08-30T14:47:59.105Z,21.69
2018-08-30T14:49:52.620Z,21.69
2018-08-30T14:50:52.416Z,21.67
2018-08-30T14:52:46.125Z,21.69
2018-08-30T14:53:45.866Z,21.72
2018-08-30T14:55:39.638Z,21.74
2018-08-30T14:56:39.452Z,21.71
2018-08-30T14:58:32.788Z,21.74
2018-08-30T14:59:32.800Z,21.66
2018-08-30T15:01:26.342Z,21.72
2018-08-30T15:02:26.135Z,21.71
2018-08-30T15:04:19.132Z,21.74
2018-08-30T15:05:19.147Z,21.71
2018-08-30T15:07:13.053Z,21.69
2018-08-30T15:08:12.835Z,21.71
2018-08-30T15:10:05.390Z,21.75
2018-08-30T15:11:05.420Z,21.64
2018-08-30T15:12:59.258Z,21.69
2018-08-30T15:13:58.999Z,21.69
2018-08-30T15:15:52.031Z,21.66
2018-08-30T15:16:52.349Z,21.67
2018-08-30T15:18:45.584Z,21.74
2018-08-30T15:19:45.715Z,21.74
2018-08-30T15:21:38.710Z,21.72
2018-08-30T15:22:38.701Z,21.63
2018-08-30T15:24:32.263Z,21.72
2018-08-30T15:25:32.391Z,21.69
2018-08-30T15:27:25.390Z,21.67
2018-08-30T15:28:25.730Z,21.75
2018-08-30T15:30:19.329Z,21.69
2018-08-30T15:31:18.770Z,21.63
2018-08-30T15:33:12.080Z,21.72
2018-08-30T15:34:11.977Z,21.71
2018-08-30T15:36:05.539Z,21.71
2018-08-30T15:37:04.974Z,21.63
2018-08-30T15:38:58.357Z,21.69
2018-08-30T15:39:58.639Z,21.72
2018-08-30T15:41:52.209Z,21.69
2018-08-30T15:42:51.996Z,21.74
2018-08-30T15:44:45.354Z,21.69
2018-08-30T15:45:45.343Z,21.69
2018-08-30T15:47:39.148Z,21.71
2018-08-30T15:48:38.353Z,21.71
2018-08-30T15:50:32.037Z,21.64
2018-08-30T15:51:31.673Z,21.72
2018-08-30T15:53:25.607Z,21.69
2018-08-30T15:54:25.393Z,21.72
2018-08-30T15:56:18.368Z,21.71
2018-08-30T15:57:18.735Z,21.67
2018-08-30T15:59:11.884Z,21.71
2018-08-30T16:00:12.060Z,21.66
2018-08-30T16:02:05.053Z,21.69
2018-08-30T16:03:05.388Z,21.63
2018-08-30T16:04:58.969Z,21.66
2018-08-30T16:05:58.416Z,21.67
2018-08-30T16:07:52.072Z,21.69
2018-08-30T16:08:52.072Z,21.66
2018-08-30T16:10:45.647Z,21.72
2018-08-30T16:11:45.063Z,21.60
2018-08-30T16:13:38.417Z,21.66
2018-08-30T16:14:38.518Z,21.66
2018-08-30T16:16:31.951Z,21.67
2018-08-30T16:17:31.774Z,21.67
2018-08-30T16:19:25.429Z,21.69
2018-08-30T16:20:25.088Z,21.69
2018-08-30T16:22:18.629Z,21.71
2018-08-30T16:23:18.825Z,21.66
2018-08-30T16:25:11.790Z,21.69
2018-08-30T16:26:12.121Z,21.66
2018-08-30T16:28:05.591Z,21.61
2018-08-30T16:29:05.134Z,21.66
2018-08-30T16:30:58.476Z,21.69
2018-08-30T16:31:58.803Z,21.59
2018-08-30T16:33:52.376Z,21.63
2018-08-30T16:34:52.121Z,21.59
2018-08-30T16:36:46.084Z,21.60
2018-08-30T16:37:45.132Z,21.67
2018-08-30T16:39:39.060Z,21.66
2018-08-30T16:40:38.806Z,21.64
2018-08-30T16:42:31.818Z,21.69
2018-08-30T16:43:31.832Z,21.61
2018-08-30T16:45:25.703Z,21.60
2018-08-30T16:46:25.203Z,21.66
2018-08-30T16:48:18.606Z,21.72
2018-08-30T16:49:18.942Z,21.59
2018-08-30T16:51:12.420Z,21.66
2018-08-30T16:52:12.181Z,21.63
2018-08-30T16:54:06.110Z,21.63
2018-08-30T16:55:05.508Z,21.61
2018-08-30T16:56:59.057Z,21.66
2018-08-30T16:57:58.546Z,21.63
2018-08-30T16:59:51.868Z,21.66
2018-08-30T17:00:51.849Z,21.66
2018-08-30T17:02:45.428Z,21.61
2018-08-30T17:03:45.341Z,21.71
2018-08-30T17:05:39.151Z,21.63
2018-08-30T17:06:38.893Z,21.66
2018-08-30T17:08:31.969Z,21.66
2018-08-30T17:09:31.407Z,21.64
2018-08-30T17:11:25.104Z,21.66
2018-08-30T17:12:24.751Z,21.61
2018-08-30T17:14:18.669Z,21.56
2018-08-30T17:15:18.418Z,21.64
2018-08-30T17:17:11.785Z,21.69
2018-08-30T17:18:11.435Z,21.61
2018-08-30T17:20:04.993Z,21.66
2018-08-30T17:21:05.120Z,21.59
2018-08-30T17:22:58.133Z,21.60
2018-08-30T17:23:58.461Z,21.60
2018-08-30T17:25:51.682Z,21.64
2018-08-30T17:26:51.457Z,21.61
2018-08-30T17:28:44.896Z,21.66
2018-08-30T17:29:45.124Z,21.60
2018-08-30T17:31:38.690Z,21.69
2018-08-30T17:32:38.163Z,21.64
2018-08-30T17:34:31.482Z,21.60
2018-08-30T17:35:31.802Z,21.60
2018-08-30T17:37:26.026Z,21.60
2018-08-30T17:38:25.450Z,21.59
2018-08-30T17:40:18.795Z,21.61
2018-08-30T17:41:18.791Z,21.66
2018-08-30T17:43:12.656Z,21.64
2018-08-30T17:44:12.475Z,21.59
2018-08-30T17:46:05.816Z,21.60
2018-08-30T17:47:05.475Z,21.60
2018-08-30T17:48:59.372Z,21.60
2018-08-30T17:49:58.812Z,21.57
2018-08-30T17:51:52.168Z,21.61
2018-08-30T17:52:52.159Z,21.60
2018-08-30T17:54:45.975Z,21.59
2018-08-30T17:55:45.907Z,21.63
2018-08-30T17:57:39.436Z,21.59
2018-08-30T17:58:38.837Z,21.60
2018-08-30T18:00:32.438Z,21.64
2018-08-30T18:01:32.642Z,21.57
2018-08-30T18:03:25.537Z,21.64
2018-08-30T18:04:25.857Z,21.69
2018-08-30T18:06:19.908Z,21.57
2018-08-30T18:07:18.870Z,21.64
2018-08-30T18:09:12.574Z,21.61
2018-08-30T18:10:12.208Z,21.56
2018-08-30T18:12:06.112Z,21.63
2018-08-30T18:13:05.544Z,21.56
2018-08-30T18:14:59.224Z,21.59
2018-08-30T18:15:59.239Z,21.53
2018-08-30T18:17:52.472Z,21.60
2018-08-30T18:18:52.581Z,21.61
2018-08-30T18:20:46.528Z,21.60
2018-08-30T18:21:45.907Z,21.56
2018-08-30T18:23:39.108Z,21.61
2018-08-30T18:24:38.912Z,21.57
2018-08-30T18:26:32.255Z,21.60
2018-08-30T18:27:32.243Z,21.59
2018-08-30T18:29:26.747Z,21.57
2018-08-30T18:30:25.942Z,21.53
2018-08-30T18:32:19.910Z,21.59
2018-08-30T18:33:19.288Z,21.63
2018-08-30T18:35:12.922Z,21.60
2018-08-30T18:36:12.603Z,21.56
2018-08-30T18:38:05.664Z,21.59
2018-08-30T18:39:05.653Z,21.56
2018-08-30T18:40:59.505Z,21.64